sensor_id;sensor_type;location;lat;lon;timestamp;P1;durP1;ratioP1;P2;durP2;ratioP2
33104;SDS011;19476;51.448;6.674;2023-06-14T00:02:11;4.45;;;2.92;;
33104;SDS011;19476;51.448;6.674;2023-06-14T00:04:37;4.68;;;3.22;;
33104;SDS011;19476;51.448;6.674;2023-06-14T00:07:04;4.82;;;3.38;;
33104;SDS011;19476;51.448;6.674;2023-06-14T00:09:33;4.28;;;3.08;;
33104;SDS011;19476;51.448;6.674;2023-06-14T00:12:01;8.93;;;3.90;;
33104;SDS011;19476;51.448;6.674;2023-06-14T00:14:27;8.10;;;3.33;;
33104;SDS011;19476;51.448;6.674;2023-06-14T00:16:53;4.07;;;2.83;;
33104;SDS011;19476;51.448;6.674;2023-06-14T00:19:23;4.85;;;3.05;;
33104;SDS011;19476;51.448;6.674;2023-06-14T00:21:50;4.28;;;3.13;;
33104;SDS011;19476;51.448;6.674;2023-06-14T00:24:17;5.68;;;3.33;;
33104;SDS011;19476;51.448;6.674;2023-06-14T00:26:42;5.55;;;2.75;;
33104;SDS011;19476;51.448;6.674;2023-06-14T00:29:08;3.83;;;2.78;;
33104;SDS011;19476;51.448;6.674;2023-06-14T00:31:34;6.15;;;3.05;;
33104;SDS011;19476;51.448;6.674;2023-06-14T00:34:00;5.50;;;3.15;;
33104;SDS011;19476;51.448;6.674;2023-06-14T00:36:25;4.25;;;2.75;;
33104;SDS011;19476;51.448;6.674;2023-06-14T00:38:51;4.90;;;3.40;;
33104;SDS011;19476;51.448;6.674;2023-06-14T00:41:18;5.13;;;3.17;;
33104;SDS011;19476;51.448;6.674;2023-06-14T00:43:43;5.50;;;3.40;;
33104;SDS011;19476;51.448;6.674;2023-06-14T00:46:09;5.10;;;3.67;;
33104;SDS011;19476;51.448;6.674;2023-06-14T00:48:35;5.35;;;3.00;;
33104;SDS011;19476;51.448;6.674;2023-06-14T00:51:02;4.47;;;3.10;;
33104;SDS011;19476;51.448;6.674;2023-06-14T00:53:29;5.00;;;3.42;;
33104;SDS011;19476;51.448;6.674;2023-06-14T00:58:24;4.70;;;2.95;;
33104;SDS011;19476;51.448;6.674;2023-06-14T01:00:51;5.22;;;2.97;;
33104;SDS011;19476;51.448;6.674;2023-06-14T01:03:17;5.80;;;3.00;;
33104;SDS011;19476;51.448;6.674;2023-06-14T01:05:46;5.00;;;3.10;;
33104;SDS011;19476;51.448;6.674;2023-06-14T01:11:02;4.75;;;2.78;;
33104;SDS011;19476;51.448;6.674;2023-06-14T01:13:50;6.35;;;3.35;;
33104;SDS011;19476;51.448;6.674;2023-06-14T01:16:17;5.28;;;3.30;;
33104;SDS011;19476;51.448;6.674;2023-06-14T01:18:44;4.95;;;3.03;;
33104;SDS011;19476;51.448;6.674;2023-06-14T01:21:25;6.32;;;3.60;;
33104;SDS011;19476;51.448;6.674;2023-06-14T01:23:53;4.95;;;3.45;;
33104;SDS011;19476;51.448;6.674;2023-06-14T01:26:20;5.10;;;3.40;;
33104;SDS011;19476;51.448;6.674;2023-06-14T01:28:47;5.68;;;3.53;;
33104;SDS011;19476;51.448;6.674;2023-06-14T01:31:16;4.55;;;3.00;;
33104;SDS011;19476;51.448;6.674;2023-06-14T01:33:44;6.10;;;2.95;;
33104;SDS011;19476;51.448;6.674;2023-06-14T01:36:11;6.50;;;3.05;;
33104;SDS011;19476;51.448;6.674;2023-06-14T01:38:38;6.97;;;2.95;;
33104;SDS011;19476;51.448;6.674;2023-06-14T01:41:05;10.23;;;2.90;;
33104;SDS011;19476;51.448;6.674;2023-06-14T01:43:31;4.55;;;2.80;;
33104;SDS011;19476;51.448;6.674;2023-06-14T01:45:59;4.05;;;2.65;;
33104;SDS011;19476;51.448;6.674;2023-06-14T01:48:26;5.75;;;3.20;;
33104;SDS011;19476;51.448;6.674;2023-06-14T01:50:52;4.10;;;2.90;;
33104;SDS011;19476;51.448;6.674;2023-06-14T01:53:18;4.82;;;3.33;;
33104;SDS011;19476;51.448;6.674;2023-06-14T01:55:44;6.30;;;2.90;;
33104;SDS011;19476;51.448;6.674;2023-06-14T01:58:13;4.55;;;2.88;;
33104;SDS011;19476;51.448;6.674;2023-06-14T02:00:41;4.40;;;2.75;;
33104;SDS011;19476;51.448;6.674;2023-06-14T02:03:08;10.38;;;3.30;;
33104;SDS011;19476;51.448;6.674;2023-06-14T02:05:34;5.57;;;3.13;;
33104;SDS011;19476;51.448;6.674;2023-06-14T02:08:00;3.80;;;2.92;;
33104;SDS011;19476;51.448;6.674;2023-06-14T02:10:26;6.55;;;3.20;;
33104;SDS011;19476;51.448;6.674;2023-06-14T02:12:52;6.18;;;3.22;;
33104;SDS011;19476;51.448;6.674;2023-06-14T02:15:17;5.03;;;2.83;;
33104;SDS011;19476;51.448;6.674;2023-06-14T02:17:45;4.70;;;2.50;;
33104;SDS011;19476;51.448;6.674;2023-06-14T02:20:12;4.85;;;2.92;;
33104;SDS011;19476;51.448;6.674;2023-06-14T02:22:38;8.68;;;3.30;;
33104;SDS011;19476;51.448;6.674;2023-06-14T02:25:05;4.97;;;3.20;;
33104;SDS011;19476;51.448;6.674;2023-06-14T02:27:32;5.47;;;3.17;;
33104;SDS011;19476;51.448;6.674;2023-06-14T02:29:57;4.65;;;3.00;;
33104;SDS011;19476;51.448;6.674;2023-06-14T02:32:23;3.90;;;2.75;;
33104;SDS011;19476;51.448;6.674;2023-06-14T02:34:49;4.97;;;2.95;;
33104;SDS011;19476;51.448;6.674;2023-06-14T02:37:16;4.55;;;2.78;;
33104;SDS011;19476;51.448;6.674;2023-06-14T02:39:42;8.02;;;3.38;;
33104;SDS011;19476;51.448;6.674;2023-06-14T02:42:07;5.65;;;3.10;;
33104;SDS011;19476;51.448;6.674;2023-06-14T02:44:33;3.95;;;2.67;;
33104;SDS011;19476;51.448;6.674;2023-06-14T02:47:00;4.40;;;2.53;;
33104;SDS011;19476;51.448;6.674;2023-06-14T02:49:26;6.28;;;3.05;;
33104;SDS011;19476;51.448;6.674;2023-06-14T02:51:51;3.65;;;2.67;;
33104;SDS011;19476;51.448;6.674;2023-06-14T02:54:17;4.72;;;2.80;;
33104;SDS011;19476;51.448;6.674;2023-06-14T02:56:43;6.10;;;3.30;;
33104;SDS011;19476;51.448;6.674;2023-06-14T02:59:09;5.55;;;2.97;;
33104;SDS011;19476;51.448;6.674;2023-06-14T03:01:35;5.55;;;2.95;;
33104;SDS011;19476;51.448;6.674;2023-06-14T03:04:04;6.57;;;3.17;;
33104;SDS011;19476;51.448;6.674;2023-06-14T03:06:30;5.20;;;2.80;;
33104;SDS011;19476;51.448;6.674;2023-06-14T03:08:58;5.05;;;2.92;;
33104;SDS011;19476;51.448;6.674;2023-06-14T03:11:29;4.38;;;2.88;;
33104;SDS011;19476;51.448;6.674;2023-06-14T03:13:56;5.03;;;2.72;;
33104;SDS011;19476;51.448;6.674;2023-06-14T03:16:22;5.25;;;2.55;;
33104;SDS011;19476;51.448;6.674;2023-06-14T03:18:52;5.05;;;2.67;;
33104;SDS011;19476;51.448;6.674;2023-06-14T03:21:21;4.68;;;2.80;;
33104;SDS011;19476;51.448;6.674;2023-06-14T03:23:47;3.90;;;2.53;;
33104;SDS011;19476;51.448;6.674;2023-06-14T03:26:14;4.88;;;2.97;;
33104;SDS011;19476;51.448;6.674;2023-06-14T03:28:43;4.70;;;2.55;;
33104;SDS011;19476;51.448;6.674;2023-06-14T03:31:12;3.73;;;2.40;;
33104;SDS011;19476;51.448;6.674;2023-06-14T03:33:39;4.60;;;2.70;;
33104;SDS011;19476;51.448;6.674;2023-06-14T03:36:05;5.60;;;2.67;;
33104;SDS011;19476;51.448;6.674;2023-06-14T03:38:32;4.93;;;2.60;;
33104;SDS011;19476;51.448;6.674;2023-06-14T03:40:58;4.05;;;2.53;;
33104;SDS011;19476;51.448;6.674;2023-06-14T03:43:25;6.78;;;2.60;;
33104;SDS011;19476;51.448;6.674;2023-06-14T03:45:52;5.15;;;2.97;;
33104;SDS011;19476;51.448;6.674;2023-06-14T03:48:18;5.00;;;2.42;;
33104;SDS011;19476;51.448;6.674;2023-06-14T03:50:43;4.25;;;2.35;;
33104;SDS011;19476;51.448;6.674;2023-06-14T03:53:10;5.35;;;2.63;;
33104;SDS011;19476;51.448;6.674;2023-06-14T03:55:36;3.30;;;2.00;;
33104;SDS011;19476;51.448;6.674;2023-06-14T03:58:03;6.13;;;2.70;;
33104;SDS011;19476;51.448;6.674;2023-06-14T04:00:28;6.65;;;2.88;;
33104;SDS011;19476;51.448;6.674;2023-06-14T04:02:56;4.78;;;2.65;;
33104;SDS011;19476;51.448;6.674;2023-06-14T04:05:22;4.38;;;2.20;;
33104;SDS011;19476;51.448;6.674;2023-06-14T04:07:51;3.88;;;2.55;;
33104;SDS011;19476;51.448;6.674;2023-06-14T04:10:17;4.05;;;2.55;;
33104;SDS011;19476;51.448;6.674;2023-06-14T04:12:43;3.92;;;2.40;;
33104;SDS011;19476;51.448;6.674;2023-06-14T04:15:09;4.88;;;2.83;;
33104;SDS011;19476;51.448;6.674;2023-06-14T04:17:35;4.13;;;2.33;;
33104;SDS011;19476;51.448;6.674;2023-06-14T04:20:02;5.53;;;2.45;;
33104;SDS011;19476;51.448;6.674;2023-06-14T04:22:31;4.43;;;2.20;;
33104;SDS011;19476;51.448;6.674;2023-06-14T04:24:58;3.90;;;2.30;;
33104;SDS011;19476;51.448;6.674;2023-06-14T04:27:25;5.60;;;2.42;;
33104;SDS011;19476;51.448;6.674;2023-06-14T04:29:55;4.20;;;2.13;;
33104;SDS011;19476;51.448;6.674;2023-06-14T04:32:28;4.22;;;2.10;;
33104;SDS011;19476;51.448;6.674;2023-06-14T04:34:57;3.90;;;2.17;;
33104;SDS011;19476;51.448;6.674;2023-06-14T04:37:25;4.47;;;2.42;;
33104;SDS011;19476;51.448;6.674;2023-06-14T04:39:54;4.22;;;2.10;;
33104;SDS011;19476;51.448;6.674;2023-06-14T04:42:20;3.50;;;2.05;;
33104;SDS011;19476;51.448;6.674;2023-06-14T04:44:56;3.90;;;2.10;;
33104;SDS011;19476;51.448;6.674;2023-06-14T04:47:22;3.70;;;1.98;;
33104;SDS011;19476;51.448;6.674;2023-06-14T04:49:54;4.28;;;2.03;;
33104;SDS011;19476;51.448;6.674;2023-06-14T04:52:20;5.22;;;2.13;;
33104;SDS011;19476;51.448;6.674;2023-06-14T04:54:46;3.70;;;2.00;;
33104;SDS011;19476;51.448;6.674;2023-06-14T04:57:13;4.55;;;2.17;;
33104;SDS011;19476;51.448;6.674;2023-06-14T04:59:42;4.97;;;2.08;;
33104;SDS011;19476;51.448;6.674;2023-06-14T05:02:09;5.90;;;2.70;;
33104;SDS011;19476;51.448;6.674;2023-06-14T05:04:37;4.72;;;2.72;;
33104;SDS011;19476;51.448;6.674;2023-06-14T05:07:09;4.95;;;2.72;;
33104;SDS011;19476;51.448;6.674;2023-06-14T05:09:35;4.10;;;2.50;;
33104;SDS011;19476;51.448;6.674;2023-06-14T05:12:02;5.75;;;2.40;;
33104;SDS011;19476;51.448;6.674;2023-06-14T05:14:28;4.90;;;2.67;;
33104;SDS011;19476;51.448;6.674;2023-06-14T05:16:54;4.32;;;2.10;;
33104;SDS011;19476;51.448;6.674;2023-06-14T05:19:20;5.32;;;2.40;;
33104;SDS011;19476;51.448;6.674;2023-06-14T05:21:46;4.90;;;2.53;;
33104;SDS011;19476;51.448;6.674;2023-06-14T05:24:13;5.53;;;2.38;;
33104;SDS011;19476;51.448;6.674;2023-06-14T05:26:39;3.92;;;2.45;;
33104;SDS011;19476;51.448;6.674;2023-06-14T05:29:05;4.50;;;2.50;;
33104;SDS011;19476;51.448;6.674;2023-06-14T05:31:31;7.68;;;2.60;;
33104;SDS011;19476;51.448;6.674;2023-06-14T05:33:58;3.83;;;2.10;;
33104;SDS011;19476;51.448;6.674;2023-06-14T05:36:23;4.32;;;2.20;;
33104;SDS011;19476;51.448;6.674;2023-06-14T05:38:50;5.60;;;2.17;;
33104;SDS011;19476;51.448;6.674;2023-06-14T05:41:16;4.72;;;2.20;;
33104;SDS011;19476;51.448;6.674;2023-06-14T05:43:42;8.18;;;3.10;;
33104;SDS011;19476;51.448;6.674;2023-06-14T05:46:08;3.22;;;1.83;;
33104;SDS011;19476;51.448;6.674;2023-06-14T05:48:33;4.47;;;2.30;;
33104;SDS011;19476;51.448;6.674;2023-06-14T05:50:59;5.40;;;2.30;;
33104;SDS011;19476;51.448;6.674;2023-06-14T05:53:25;5.45;;;2.55;;
33104;SDS011;19476;51.448;6.674;2023-06-14T05:55:51;4.30;;;2.45;;
33104;SDS011;19476;51.448;6.674;2023-06-14T05:58:18;4.55;;;2.40;;
33104;SDS011;19476;51.448;6.674;2023-06-14T06:00:45;6.30;;;2.47;;
33104;SDS011;19476;51.448;6.674;2023-06-14T06:03:11;5.30;;;2.75;;
33104;SDS011;19476;51.448;6.674;2023-06-14T06:05:38;5.78;;;2.60;;
33104;SDS011;19476;51.448;6.674;2023-06-14T06:08:04;5.18;;;2.55;;
33104;SDS011;19476;51.448;6.674;2023-06-14T06:10:31;5.60;;;2.25;;
33104;SDS011;19476;51.448;6.674;2023-06-14T06:12:57;4.95;;;2.45;;
33104;SDS011;19476;51.448;6.674;2023-06-14T06:15:22;5.13;;;2.30;;
33104;SDS011;19476;51.448;6.674;2023-06-14T06:17:48;3.55;;;1.95;;
33104;SDS011;19476;51.448;6.674;2023-06-14T06:20:14;4.63;;;2.70;;
33104;SDS011;19476;51.448;6.674;2023-06-14T06:22:40;4.03;;;2.13;;
33104;SDS011;19476;51.448;6.674;2023-06-14T06:25:06;4.50;;;2.40;;
33104;SDS011;19476;51.448;6.674;2023-06-14T06:27:33;3.30;;;2.10;;
33104;SDS011;19476;51.448;6.674;2023-06-14T06:30:01;3.60;;;2.53;;
33104;SDS011;19476;51.448;6.674;2023-06-14T06:32:27;4.50;;;2.30;;
33104;SDS011;19476;51.448;6.674;2023-06-14T06:34:52;7.93;;;2.50;;
33104;SDS011;19476;51.448;6.674;2023-06-14T06:37:18;2.90;;;2.08;;
33104;SDS011;19476;51.448;6.674;2023-06-14T06:39:44;4.38;;;2.35;;
33104;SDS011;19476;51.448;6.674;2023-06-14T06:42:11;4.78;;;2.50;;
33104;SDS011;19476;51.448;6.674;2023-06-14T06:44:37;5.32;;;2.40;;
33104;SDS011;19476;51.448;6.674;2023-06-14T06:47:03;3.97;;;2.10;;
33104;SDS011;19476;51.448;6.674;2023-06-14T06:49:29;4.55;;;1.90;;
33104;SDS011;19476;51.448;6.674;2023-06-14T06:52:13;2.75;;;1.80;;
33104;SDS011;19476;51.448;6.674;2023-06-14T06:54:39;3.17;;;1.80;;
33104;SDS011;19476;51.448;6.674;2023-06-14T06:57:05;8.73;;;1.95;;
33104;SDS011;19476;51.448;6.674;2023-06-14T06:59:32;2.80;;;1.67;;
33104;SDS011;19476;51.448;6.674;2023-06-14T07:05:21;3.97;;;1.80;;
33104;SDS011;19476;51.448;6.674;2023-06-14T07:07:49;2.33;;;1.50;;
33104;SDS011;19476;51.448;6.674;2023-06-14T07:10:15;4.03;;;1.50;;
33104;SDS011;19476;51.448;6.674;2023-06-14T07:12:42;3.88;;;1.42;;
33104;SDS011;19476;51.448;6.674;2023-06-14T07:15:08;3.47;;;1.25;;
33104;SDS011;19476;51.448;6.674;2023-06-14T07:17:35;3.28;;;1.38;;
33104;SDS011;19476;51.448;6.674;2023-06-14T07:20:03;2.50;;;1.17;;
33104;SDS011;19476;51.448;6.674;2023-06-14T07:22:33;5.40;;;1.40;;
33104;SDS011;19476;51.448;6.674;2023-06-14T07:24:59;2.35;;;1.38;;
33104;SDS011;19476;51.448;6.674;2023-06-14T07:27:25;2.38;;;1.02;;
33104;SDS011;19476;51.448;6.674;2023-06-14T07:29:50;3.03;;;1.10;;
33104;SDS011;19476;51.448;6.674;2023-06-14T07:32:16;2.60;;;1.13;;
33104;SDS011;19476;51.448;6.674;2023-06-14T07:34:42;4.70;;;1.48;;
33104;SDS011;19476;51.448;6.674;2023-06-14T07:37:08;3.28;;;1.48;;
33104;SDS011;19476;51.448;6.674;2023-06-14T07:39:33;4.38;;;1.60;;
33104;SDS011;19476;51.448;6.674;2023-06-14T07:42:00;3.08;;;1.30;;
33104;SDS011;19476;51.448;6.674;2023-06-14T07:44:27;3.25;;;1.33;;
33104;SDS011;19476;51.448;6.674;2023-06-14T07:46:56;4.78;;;1.50;;
33104;SDS011;19476;51.448;6.674;2023-06-14T07:49:23;3.42;;;1.38;;
33104;SDS011;19476;51.448;6.674;2023-06-14T07:51:49;2.22;;;1.30;;
33104;SDS011;19476;51.448;6.674;2023-06-14T07:54:16;2.78;;;1.30;;
33104;SDS011;19476;51.448;6.674;2023-06-14T07:56:42;2.35;;;1.25;;
33104;SDS011;19476;51.448;6.674;2023-06-14T07:59:08;4.43;;;1.10;;
33104;SDS011;19476;51.448;6.674;2023-06-14T08:01:34;2.88;;;1.30;;
33104;SDS011;19476;51.448;6.674;2023-06-14T08:04:01;1.73;;;1.23;;
33104;SDS011;19476;51.448;6.674;2023-06-14T08:06:26;3.25;;;1.67;;
33104;SDS011;19476;51.448;6.674;2023-06-14T08:08:52;3.88;;;1.55;;
33104;SDS011;19476;51.448;6.674;2023-06-14T08:11:18;5.45;;;1.75;;
33104;SDS011;19476;51.448;6.674;2023-06-14T08:13:44;2.17;;;1.38;;
33104;SDS011;19476;51.448;6.674;2023-06-14T08:16:10;1.50;;;1.20;;
33104;SDS011;19476;51.448;6.674;2023-06-14T08:18:42;4.20;;;1.45;;
33104;SDS011;19476;51.448;6.674;2023-06-14T08:21:08;1.33;;;1.17;;
33104;SDS011;19476;51.448;6.674;2023-06-14T08:23:34;3.25;;;1.23;;
33104;SDS011;19476;51.448;6.674;2023-06-14T08:26:01;3.15;;;1.33;;
33104;SDS011;19476;51.448;6.674;2023-06-14T08:28:29;3.35;;;1.40;;
33104;SDS011;19476;51.448;6.674;2023-06-14T08:30:55;2.47;;;1.58;;
33104;SDS011;19476;51.448;6.674;2023-06-14T08:33:21;4.43;;;1.38;;
33104;SDS011;19476;51.448;6.674;2023-06-14T08:35:46;2.00;;;1.25;;
33104;SDS011;19476;51.448;6.674;2023-06-14T08:38:13;2.83;;;1.45;;
33104;SDS011;19476;51.448;6.674;2023-06-14T08:40:39;2.75;;;1.50;;
33104;SDS011;19476;51.448;6.674;2023-06-14T08:43:07;5.43;;;1.52;;
33104;SDS011;19476;51.448;6.674;2023-06-14T08:45:32;2.83;;;1.17;;
33104;SDS011;19476;51.448;6.674;2023-06-14T08:47:59;6.40;;;1.65;;
33104;SDS011;19476;51.448;6.674;2023-06-14T08:50:25;2.78;;;1.20;;
33104;SDS011;19476;51.448;6.674;2023-06-14T08:52:55;2.55;;;1.13;;
33104;SDS011;19476;51.448;6.674;2023-06-14T08:55:25;1.90;;;1.17;;
33104;SDS011;19476;51.448;6.674;2023-06-14T08:57:56;2.75;;;1.25;;
33104;SDS011;19476;51.448;6.674;2023-06-14T09:00:26;2.90;;;1.48;;
33104;SDS011;19476;51.448;6.674;2023-06-14T09:02:53;2.47;;;1.48;;
33104;SDS011;19476;51.448;6.674;2023-06-14T09:05:25;2.83;;;1.48;;
33104;SDS011;19476;51.448;6.674;2023-06-14T09:07:51;2.08;;;1.63;;
33104;SDS011;19476;51.448;6.674;2023-06-14T09:10:20;8.02;;;1.92;;
33104;SDS011;19476;51.448;6.674;2023-06-14T09:12:46;2.08;;;1.52;;
33104;SDS011;19476;51.448;6.674;2023-06-14T09:15:12;3.08;;;1.38;;
33104;SDS011;19476;51.448;6.674;2023-06-14T09:17:39;2.65;;;1.67;;
33104;SDS011;19476;51.448;6.674;2023-06-14T09:20:05;2.35;;;1.20;;
33104;SDS011;19476;51.448;6.674;2023-06-14T09:22:36;2.42;;;1.35;;
33104;SDS011;19476;51.448;6.674;2023-06-14T09:25:03;2.85;;;1.60;;
33104;SDS011;19476;51.448;6.674;2023-06-14T09:27:30;2.63;;;1.50;;
33104;SDS011;19476;51.448;6.674;2023-06-14T09:29:58;2.10;;;1.25;;
33104;SDS011;19476;51.448;6.674;2023-06-14T09:32:24;3.55;;;1.48;;
33104;SDS011;19476;51.448;6.674;2023-06-14T09:34:50;2.42;;;1.58;;
33104;SDS011;19476;51.448;6.674;2023-06-14T09:37:29;2.33;;;1.42;;
33104;SDS011;19476;51.448;6.674;2023-06-14T09:39:56;1.90;;;1.27;;
33104;SDS011;19476;51.448;6.674;2023-06-14T09:42:23;2.13;;;1.55;;
33104;SDS011;19476;51.448;6.674;2023-06-14T09:44:53;1.73;;;1.40;;
33104;SDS011;19476;51.448;6.674;2023-06-14T09:47:21;1.65;;;1.17;;
33104;SDS011;19476;51.448;6.674;2023-06-14T09:49:48;2.08;;;1.33;;
33104;SDS011;19476;51.448;6.674;2023-06-14T09:52:16;3.22;;;1.30;;
33104;SDS011;19476;51.448;6.674;2023-06-14T09:54:44;3.17;;;1.30;;
33104;SDS011;19476;51.448;6.674;2023-06-14T09:57:12;1.30;;;0.95;;
33104;SDS011;19476;51.448;6.674;2023-06-14T09:59:41;1.27;;;0.93;;
33104;SDS011;19476;51.448;6.674;2023-06-14T10:07:35;1.05;;;0.80;;
33104;SDS011;19476;51.448;6.674;2023-06-14T10:10:06;2.38;;;0.82;;
33104;SDS011;19476;51.448;6.674;2023-06-14T10:12:33;1.08;;;0.80;;
33104;SDS011;19476;51.448;6.674;2023-06-14T10:14:59;1.65;;;0.95;;
33104;SDS011;19476;51.448;6.674;2023-06-14T10:20:30;2.00;;;0.93;;
33104;SDS011;19476;51.448;6.674;2023-06-14T10:23:03;1.75;;;0.85;;
33104;SDS011;19476;51.448;6.674;2023-06-14T10:25:37;1.40;;;0.98;;
33104;SDS011;19476;51.448;6.674;2023-06-14T10:28:14;2.58;;;0.82;;
33104;SDS011;19476;51.448;6.674;2023-06-14T10:31:01;2.33;;;0.90;;
33104;SDS011;19476;51.448;6.674;2023-06-14T10:33:32;0.95;;;0.80;;
33104;SDS011;19476;51.448;6.674;2023-06-14T10:39:18;1.77;;;0.93;;
33104;SDS011;19476;51.448;6.674;2023-06-14T10:41:52;1.55;;;0.75;;
33104;SDS011;19476;51.448;6.674;2023-06-14T10:49:17;1.33;;;0.90;;
33104;SDS011;19476;51.448;6.674;2023-06-14T10:51:50;1.63;;;0.90;;
33104;SDS011;19476;51.448;6.674;2023-06-14T10:54:16;1.27;;;0.80;;
33104;SDS011;19476;51.448;6.674;2023-06-14T10:56:45;3.60;;;1.25;;
33104;SDS011;19476;51.448;6.674;2023-06-14T10:59:13;1.58;;;1.00;;
33104;SDS011;19476;51.448;6.674;2023-06-14T11:04:27;1.20;;;0.90;;
33104;SDS011;19476;51.448;6.674;2023-06-14T11:12:45;1.92;;;0.77;;
33104;SDS011;19476;51.448;6.674;2023-06-14T11:15:13;1.20;;;0.63;;
33104;SDS011;19476;51.448;6.674;2023-06-14T11:17:42;2.03;;;0.80;;
33104;SDS011;19476;51.448;6.674;2023-06-14T11:20:18;2.03;;;1.10;;
33104;SDS011;19476;51.448;6.674;2023-06-14T11:22:44;1.45;;;0.80;;
33104;SDS011;19476;51.448;6.674;2023-06-14T11:25:14;1.98;;;0.90;;
33104;SDS011;19476;51.448;6.674;2023-06-14T11:27:43;1.17;;;0.68;;
33104;SDS011;19476;51.448;6.674;2023-06-14T11:30:09;2.90;;;0.80;;
33104;SDS011;19476;51.448;6.674;2023-06-14T11:32:37;2.08;;;0.90;;
33104;SDS011;19476;51.448;6.674;2023-06-14T11:35:03;2.80;;;1.45;;
33104;SDS011;19476;51.448;6.674;2023-06-14T11:37:32;2.30;;;0.90;;
33104;SDS011;19476;51.448;6.674;2023-06-14T11:39:58;2.80;;;0.90;;
33104;SDS011;19476;51.448;6.674;2023-06-14T11:42:28;2.50;;;0.95;;
33104;SDS011;19476;51.448;6.674;2023-06-14T11:44:55;1.90;;;1.08;;
33104;SDS011;19476;51.448;6.674;2023-06-14T11:47:21;0.82;;;0.70;;
33104;SDS011;19476;51.448;6.674;2023-06-14T11:49:58;3.88;;;1.05;;
33104;SDS011;19476;51.448;6.674;2023-06-14T11:52:24;1.42;;;0.90;;
33104;SDS011;19476;51.448;6.674;2023-06-14T11:54:50;2.55;;;1.30;;
33104;SDS011;19476;51.448;6.674;2023-06-14T11:57:17;2.33;;;1.13;;
33104;SDS011;19476;51.448;6.674;2023-06-14T11:59:44;2.78;;;1.30;;
33104;SDS011;19476;51.448;6.674;2023-06-14T12:02:14;1.95;;;1.10;;
33104;SDS011;19476;51.448;6.674;2023-06-14T12:04:46;2.65;;;1.25;;
33104;SDS011;19476;51.448;6.674;2023-06-14T12:07:16;1.98;;;1.02;;
33104;SDS011;19476;51.448;6.674;2023-06-14T12:12:20;2.75;;;1.08;;
33104;SDS011;19476;51.448;6.674;2023-06-14T12:14:47;3.08;;;1.40;;
33104;SDS011;19476;51.448;6.674;2023-06-14T12:17:16;2.15;;;1.38;;
33104;SDS011;19476;51.448;6.674;2023-06-14T12:19:43;2.05;;;1.42;;
33104;SDS011;19476;51.448;6.674;2023-06-14T12:22:10;2.30;;;1.13;;
33104;SDS011;19476;51.448;6.674;2023-06-14T12:24:37;1.80;;;1.10;;
33104;SDS011;19476;51.448;6.674;2023-06-14T12:27:03;3.92;;;1.08;;
33104;SDS011;19476;51.448;6.674;2023-06-14T12:29:30;3.30;;;1.25;;
33104;SDS011;19476;51.448;6.674;2023-06-14T12:31:56;1.60;;;1.30;;
33104;SDS011;19476;51.448;6.674;2023-06-14T12:34:23;2.78;;;1.05;;
33104;SDS011;19476;51.448;6.674;2023-06-14T12:36:50;1.55;;;1.08;;
33104;SDS011;19476;51.448;6.674;2023-06-14T12:39:16;1.45;;;1.20;;
33104;SDS011;19476;51.448;6.674;2023-06-14T12:41:42;1.48;;;1.10;;
33104;SDS011;19476;51.448;6.674;2023-06-14T12:44:08;1.73;;;1.30;;
33104;SDS011;19476;51.448;6.674;2023-06-14T12:46:34;2.47;;;1.45;;
33104;SDS011;19476;51.448;6.674;2023-06-14T12:49:00;1.63;;;1.15;;
33104;SDS011;19476;51.448;6.674;2023-06-14T12:51:26;2.05;;;1.73;;
33104;SDS011;19476;51.448;6.674;2023-06-14T12:53:52;3.13;;;1.45;;
33104;SDS011;19476;51.448;6.674;2023-06-14T12:56:18;3.58;;;1.55;;
33104;SDS011;19476;51.448;6.674;2023-06-14T12:58:44;3.42;;;1.60;;
33104;SDS011;19476;51.448;6.674;2023-06-14T13:01:09;2.55;;;1.30;;
33104;SDS011;19476;51.448;6.674;2023-06-14T13:03:35;1.90;;;1.30;;
33104;SDS011;19476;51.448;6.674;2023-06-14T13:06:01;1.65;;;1.40;;
33104;SDS011;19476;51.448;6.674;2023-06-14T13:08:28;1.55;;;1.42;;
33104;SDS011;19476;51.448;6.674;2023-06-14T13:10:53;4.20;;;1.50;;
33104;SDS011;19476;51.448;6.674;2023-06-14T13:13:19;1.83;;;1.55;;
33104;SDS011;19476;51.448;6.674;2023-06-14T13:15:45;4.18;;;1.70;;
33104;SDS011;19476;51.448;6.674;2023-06-14T13:18:11;2.35;;;1.60;;
33104;SDS011;19476;51.448;6.674;2023-06-14T13:20:41;3.83;;;2.28;;
33104;SDS011;19476;51.448;6.674;2023-06-14T13:23:07;2.45;;;1.90;;
33104;SDS011;19476;51.448;6.674;2023-06-14T13:25:34;2.72;;;2.00;;
33104;SDS011;19476;51.448;6.674;2023-06-14T13:28:01;4.22;;;1.70;;
33104;SDS011;19476;51.448;6.674;2023-06-14T13:30:29;7.97;;;1.98;;
33104;SDS011;19476;51.448;6.674;2023-06-14T13:32:55;2.92;;;2.00;;
33104;SDS011;19476;51.448;6.674;2023-06-14T13:35:22;3.83;;;1.95;;
33104;SDS011;19476;51.448;6.674;2023-06-14T13:37:48;3.03;;;2.10;;
33104;SDS011;19476;51.448;6.674;2023-06-14T13:40:14;2.05;;;1.70;;
33104;SDS011;19476;51.448;6.674;2023-06-14T13:42:40;2.50;;;1.98;;
33104;SDS011;19476;51.448;6.674;2023-06-14T13:45:06;2.55;;;1.77;;
33104;SDS011;19476;51.448;6.674;2023-06-14T13:47:33;2.03;;;1.80;;
33104;SDS011;19476;51.448;6.674;2023-06-14T13:49:59;2.45;;;1.90;;
33104;SDS011;19476;51.448;6.674;2023-06-14T13:52:25;2.40;;;2.00;;
33104;SDS011;19476;51.448;6.674;2023-06-14T13:54:51;6.00;;;2.42;;
33104;SDS011;19476;51.448;6.674;2023-06-14T13:57:17;2.40;;;1.98;;
33104;SDS011;19476;51.448;6.674;2023-06-14T13:59:43;4.13;;;1.92;;
33104;SDS011;19476;51.448;6.674;2023-06-14T14:02:10;2.25;;;1.90;;
33104;SDS011;19476;51.448;6.674;2023-06-14T14:04:37;2.28;;;1.80;;
33104;SDS011;19476;51.448;6.674;2023-06-14T14:07:04;4.60;;;2.10;;
33104;SDS011;19476;51.448;6.674;2023-06-14T14:09:31;3.08;;;2.00;;
33104;SDS011;19476;51.448;6.674;2023-06-14T14:11:58;2.95;;;1.80;;
33104;SDS011;19476;51.448;6.674;2023-06-14T14:14:24;4.03;;;2.00;;
33104;SDS011;19476;51.448;6.674;2023-06-14T14:16:50;2.63;;;1.80;;
33104;SDS011;19476;51.448;6.674;2023-06-14T14:19:20;2.20;;;1.98;;
33104;SDS011;19476;51.448;6.674;2023-06-14T14:21:47;3.03;;;2.10;;
33104;SDS011;19476;51.448;6.674;2023-06-14T14:24:13;2.72;;;2.10;;
33104;SDS011;19476;51.448;6.674;2023-06-14T14:26:39;3.00;;;2.08;;
33104;SDS011;19476;51.448;6.674;2023-06-14T14:29:06;2.08;;;1.88;;
33104;SDS011;19476;51.448;6.674;2023-06-14T14:31:31;3.55;;;2.00;;
33104;SDS011;19476;51.448;6.674;2023-06-14T14:33:57;5.10;;;2.20;;
33104;SDS011;19476;51.448;6.674;2023-06-14T14:36:23;2.97;;;2.00;;
33104;SDS011;19476;51.448;6.674;2023-06-14T14:38:49;3.53;;;2.00;;
33104;SDS011;19476;51.448;6.674;2023-06-14T14:41:16;3.65;;;2.55;;
33104;SDS011;19476;51.448;6.674;2023-06-14T14:43:43;3.33;;;2.22;;
33104;SDS011;19476;51.448;6.674;2023-06-14T14:46:08;2.45;;;2.10;;
33104;SDS011;19476;51.448;6.674;2023-06-14T14:48:35;3.63;;;1.85;;
33104;SDS011;19476;51.448;6.674;2023-06-14T14:51:00;3.63;;;2.10;;
33104;SDS011;19476;51.448;6.674;2023-06-14T14:53:28;2.58;;;2.08;;
33104;SDS011;19476;51.448;6.674;2023-06-14T14:55:54;5.15;;;2.25;;
33104;SDS011;19476;51.448;6.674;2023-06-14T14:58:20;4.00;;;2.03;;
33104;SDS011;19476;51.448;6.674;2023-06-14T15:00:46;2.72;;;1.98;;
33104;SDS011;19476;51.448;6.674;2023-06-14T15:03:12;2.65;;;1.90;;
33104;SDS011;19476;51.448;6.674;2023-06-14T15:05:39;2.53;;;2.05;;
33104;SDS011;19476;51.448;6.674;2023-06-14T15:08:05;3.83;;;2.03;;
33104;SDS011;19476;51.448;6.674;2023-06-14T15:10:38;2.45;;;1.80;;
33104;SDS011;19476;51.448;6.674;2023-06-14T15:13:06;5.53;;;2.20;;
33104;SDS011;19476;51.448;6.674;2023-06-14T15:18:01;2.33;;;2.00;;
33104;SDS011;19476;51.448;6.674;2023-06-14T15:20:27;3.33;;;2.05;;
33104;SDS011;19476;51.448;6.674;2023-06-14T15:22:54;2.70;;;2.00;;
33104;SDS011;19476;51.448;6.674;2023-06-14T15:25:29;4.57;;;2.22;;
33104;SDS011;19476;51.448;6.674;2023-06-14T15:27:57;3.13;;;2.33;;